KVLD/VLD METAR and TAF weather

Enter ICAO airport designator
Station Type Date Time Source
KVLD METAR 2022/12/10 01:53 UTC NOAA

KVLD 100153Z 00000KT 10SM CLR 16/14 A3012 RMK AO2 SLP206 T01610144 $


Station Type Date Time Source
KVLD Decoded METAR 2022/12/10 01:53 UTC NOAA

VALDOSTA REGIONAL AIRPORT, GA, United States (KVLD) 30-47N 083-16W
Dec 09, 2022 - 08:53 PM EST / 2022.12.10 0153 UTC
Wind: Calm:0
Visibility: 10 mile(s):0
Sky conditions: clear
Temperature: 61.0 F (16.1 C)
Dew Point: 57.9 F (14.4 C)
Relative Humidity: 89%
Pressure (altimeter): 30.12 in. Hg (1019 hPa)
ob: KVLD 100153Z 00000KT 10SM CLR 16/14 A3012 RMK AO2 SLP206 T01610144
cycle: 2

Station Type Date Time Source
KVLD TAF 2022/12/09 18:22 UTC NOAA

TAF KVLD 091720Z 0918/1018 30003KT P6SM FEW100
FM100900 00000KT 1SM BR BKN020
FM101500 04003KT P6SM SCT025

Example: see airport list